Time;durP1;ratioP1;P1;durP2;ratioP2;P2;SDS_P1;SDS_P2;PMS_P1;PMS_P2;Temp;Humidity;BMP_temperature;BMP_pressure;BME280_temperature;BME280_humidity;BME280_pressure;Samples;Min_cycle;Max_cycle;Signal;HPM_P1;HPM_P2
2024/04/03 00:00:55;;;;;;;1.30;0.90;;;;;;;9.41;74.95;97313.86;101507;1270;4790376;-21
2024/04/03 00:03:23;;;;;;;1.50;1.20;;;;;;;9.73;75.34;97315.77;105082;1270;61169;-21
2024/04/03 00:13:34;;;;;;;1.90;1.50;;;;;;;10.28;75.17;97322.48;102588;1292;599613;-21
2024/04/03 00:16:01;;;;;;;3.50;2.00;;;;;;;10.51;75.13;97315.91;104799;1268;61664;-21
2024/04/03 00:26:07;;;;;;;2.10;1.70;;;;;;;10.75;72.81;97320.23;102532;1291;599997;-21
2024/04/03 00:28:35;;;;;;;1.00;1.00;;;;;;;10.64;73.69;97327.50;104814;1267;61656;-21
2024/04/03 00:31:03;;;;;;;2.90;1.50;;;;;;;11.04;72.27;97326.79;104801;1264;61187;-21
2024/04/03 00:33:31;;;;;;;4.50;2.50;;;;;;;10.96;72.00;97329.39;104925;1270;71825;-22
2024/04/03 00:35:59;;;;;;;1.60;1.40;;;;;;;10.96;72.05;97332.75;104832;1266;74321;-21
2024/04/03 00:38:27;;;;;;;2.60;1.90;;;;;;;10.74;72.77;97334.00;104852;1272;72625;-21
2024/04/03 00:40:59;;;;;;;1.40;1.30;;;;;;;10.71;73.30;97339.42;101665;1268;4635186;-21
2024/04/03 00:51:10;;;;;;;2.20;1.60;;;;;;;11.10;70.64;97338.63;102631;1293;599894;-21
2024/04/03 00:53:38;;;;;;;1.50;1.40;;;;;;;10.70;72.05;97352.05;104780;1267;61090;-21
2024/04/03 01:03:48;;;;;;;2.20;1.40;;;;;;;10.84;71.46;97359.36;102565;1293;600855;-22
2024/04/03 01:06:16;;;;;;;1.50;1.20;;;;;;;10.67;71.66;97353.94;104879;1266;61155;-22
2024/04/03 01:08:44;;;;;;;2.40;1.00;;;;;;;10.88;71.07;97343.29;104821;1264;61100;-22
2024/04/03 01:18:56;;;;;;;2.50;1.20;;;;;;;10.76;70.94;97369.44;102578;1293;599949;-22
2024/04/03 01:29:02;;;;;;;4.70;1.10;;;;;;;11.15;69.23;97370.42;102528;1292;599372;-22
2024/04/03 01:37:45;;;;;;;1.70;1.00;;;;;;;11.07;68.89;97352.32;102595;1293;600292;-23
2024/04/03 01:40:13;;;;;;;1.30;1.20;;;;;;;11.16;68.39;97366.58;104802;1268;61053;-23
2024/04/03 01:42:41;;;;;;;1.50;1.40;;;;;;;11.04;68.91;97366.14;104850;1269;61273;-23
2024/04/03 01:45:08;;;;;;;1.20;1.10;;;;;;;10.70;69.56;97366.36;104794;1272;71795;-23
2024/04/03 01:55:20;;;;;;;1.90;1.10;;;;;;;11.05;68.50;97373.54;102550;1291;600551;-23
2024/04/03 01:57:48;;;;;;;2.00;1.30;;;;;;;10.84;69.33;97373.09;104845;1266;61154;-23
2024/04/03 02:00:15;;;;;;;4.90;1.30;;;;;;;10.63;69.67;97378.41;104832;1272;61136;-23
2024/04/03 02:02:43;;;;;;;1.00;0.90;;;;;;;10.59;69.94;97378.20;104852;1270;72983;-23
2024/04/03 02:05:10;;;;;;;1.20;1.10;;;;;;;11.03;68.33;97376.92;104854;1269;73609;-24
2024/04/03 02:07:38;;;;;;;3.20;1.30;;;;;;;11.11;67.58;97376.34;104817;1266;72675;-23
2024/04/03 02:10:06;;;;;;;1.50;1.20;;;;;;;10.96;67.47;97374.52;101606;1263;4744768;-23
2024/04/03 02:20:18;;;;;;;1.60;0.90;;;;;;;11.02;67.46;97377.38;102596;1293;600319;-24
2024/04/03 02:22:46;;;;;;;1.60;1.20;;;;;;;10.98;67.27;97380.43;104817;1271;61095;-24
2024/04/03 02:25:13;;;;;;;1.90;1.10;;;;;;;10.68;68.21;97374.77;104869;1270;61062;-24
2024/04/03 02:35:28;;;;;;;1.60;0.80;;;;;;;11.04;66.80;97393.26;102557;1292;599473;-26
2024/04/03 02:37:55;;;;;;;2.10;1.00;;;;;;;10.98;67.20;97405.16;104813;1267;61170;-26
2024/04/03 02:40:23;;;;;;;1.40;0.70;;;;;;;10.83;67.41;97399.39;104815;1267;61175;-26
2024/04/03 02:42:50;;;;;;;2.60;0.80;;;;;;;10.47;68.39;97399.51;104778;1272;73045;-26
2024/04/03 02:45:18;;;;;;;2.60;1.00;;;;;;;10.39;68.99;97394.87;104808;1270;73594;-26
2024/04/03 02:54:57;;;;;;;1.20;1.00;;;;;;;10.63;67.65;97403.80;102561;1295;600557;-24
2024/04/03 02:57:24;;;;;;;3.20;1.20;;;;;;;10.31;68.43;97404.54;104783;1267;61101;-24
2024/04/03 02:59:52;;;;;;;2.70;1.00;;;;;;;10.54;67.88;97408.01;104822;1266;61169;-24
2024/04/03 03:08:43;;;;;;;3.10;0.90;;;;;;;10.30;68.29;97402.77;102622;1295;600146;-24
2024/04/03 03:11:11;;;;;;;1.70;1.10;;;;;;;10.17;68.56;97404.50;104820;1270;61106;-24
2024/04/03 03:13:39;;;;;;;1.60;1.00;;;;;;;10.42;67.80;97403.04;105496;1262;61167;-24
2024/04/03 03:23:50;;;;;;;1.80;0.90;;;;;;;10.26;67.90;97409.22;102628;1290;600016;-25
2024/04/03 03:34:00;;;;;;;1.40;0.80;;;;;;;10.85;65.93;97428.85;102923;1289;599982;-24
2024/04/03 03:36:28;;;;;;;3.20;1.40;;;;;;;10.53;66.31;97428.89;104792;1268;61158;-24
2024/04/03 03:38:55;;;;;;;1.40;0.90;;;;;;;10.38;67.15;97444.80;104786;1271;61203;-26
2024/04/03 03:41:23;;;;;;;1.70;1.10;;;;;;;10.50;66.89;97440.73;104835;1271;73076;-24
2024/04/03 03:43:51;;;;;;;2.10;1.10;;;;;;;10.94;65.66;97445.98;104769;1271;73255;-25
2024/04/03 03:46:19;;;;;;;1.40;1.10;;;;;;;10.82;65.26;97450.89;104874;1266;71372;-25
2024/04/03 03:56:30;;;;;;;2.00;1.30;;;;;;;10.83;65.39;97468.66;102611;1293;600187;-25
2024/04/03 03:59:06;;;;;;;1.10;0.90;;;;;;;10.89;64.48;97473.52;105041;1265;61142;-26
2024/04/03 04:01:33;;;;;;;4.10;1.50;;;;;;;10.91;64.95;97474.73;104856;1266;61123;-26
2024/04/03 04:04:01;;;;;;;5.80;1.50;;;;;;;10.64;65.48;97480.32;104738;1267;71336;-26
2024/04/03 04:06:29;;;;;;;5.20;1.60;;;;;;;10.36;65.95;97460.21;104755;1267;74338;-26
2024/04/03 04:08:58;;;;;;;2.40;1.40;;;;;;;10.44;66.44;97490.92;102487;1272;4739265;-26
2024/04/03 04:19:14;;;;;;;3.10;1.50;;;;;;;10.64;65.33;97513.48;102575;1295;599326;-25
2024/04/03 04:21:41;;;;;;;1.60;1.10;;;;;;;10.40;65.80;97500.39;104771;1270;64358;-25
2024/04/03 04:24:09;;;;;;;3.10;1.50;;;;;;;10.70;65.26;97490.70;105462;1257;61209;-25
2024/04/03 04:26:36;;;;;;;3.10;1.50;;;;;;;10.93;63.86;97509.14;105303;1257;73028;-25
2024/04/03 04:29:04;;;;;;;3.10;1.40;;;;;;;11.01;63.27;97518.79;105246;1257;74315;-25
2024/04/03 04:39:15;;;;;;;3.80;1.50;;;;;;;11.29;62.71;97518.79;102628;1293;600355;-25
2024/04/03 04:49:28;;;;;;;1.50;1.00;;;;;;;10.76;64.06;97523.33;102594;1292;600347;-25
2024/04/03 04:51:55;;;;;;;1.80;1.00;;;;;;;10.72;64.00;97518.25;104823;1267;61654;-27
2024/04/03 04:54:23;;;;;;;1.80;1.10;;;;;;;11.08;62.97;97515.94;104860;1270;60999;-26
2024/04/03 04:56:51;;;;;;;1.90;1.10;;;;;;;11.32;61.81;97526.05;104856;1270;71702;-27
2024/04/03 04:59:19;;;;;;;3.30;1.10;;;;;;;11.26;61.96;97522.54;104820;1271;74427;-27
2024/04/03 05:01:46;;;;;;;1.30;1.00;;;;;;;11.17;62.09;97531.71;104981;1277;72692;-27
2024/04/03 05:04:14;;;;;;;2.10;1.10;;;;;;;11.09;62.04;97529.52;101491;1267;4715909;-27
2024/04/03 05:06:41;;;;;;;1.30;1.00;;;;;;;11.11;62.41;97533.52;104780;1271;61190;-27
2024/04/03 05:09:09;;;;;;;0.70;0.70;;;;;;;10.98;62.09;97504.08;104820;1270;71562;-27
2024/04/03 05:11:37;;;;;;;2.20;1.00;;;;;;;11.43;60.67;97515.82;105082;1268;73242;-27
2024/04/03 05:14:04;;;;;;;1.70;0.90;;;;;;;11.57;60.23;97529.81;105061;1268;72709;-27
2024/04/03 05:16:32;;;;;;;2.40;1.10;;;;;;;11.61;60.19;97541.59;105192;1264;61089;-27
2024/04/03 05:19:00;;;;;;;1.40;0.90;;;;;;;11.48;60.35;97533.91;105268;1265;61076;-27
2024/04/03 05:21:29;;;;;;;2.20;0.90;;;;;;;11.35;61.03;97536.56;105195;1267;73850;-27
2024/04/03 05:23:57;;;;;;;3.20;1.10;;;;;;;11.18;61.40;97528.49;105189;1266;74409;-27
2024/04/03 05:26:24;;;;;;;2.50;0.90;;;;;;;11.35;60.78;97537.60;105115;1266;72713;-27
2024/04/03 05:28:52;;;;;;;1.10;0.80;;;;;;;11.29;60.55;97538.88;105056;1264;61171;-27
2024/04/03 05:31:21;;;;;;;1.30;0.90;;;;;;;11.23;60.30;97522.45;105138;1266;61126;-27
2024/04/03 05:33:50;;;;;;;1.20;0.80;;;;;;;11.31;60.30;97536.56;105238;1261;73826;-27
2024/04/03 05:36:17;;;;;;;1.90;0.90;;;;;;;11.89;59.18;97550.28;104932;1268;77066;-27
2024/04/03 05:38:45;;;;;;;1.60;1.00;;;;;;;12.38;57.19;97549.96;105226;1265;75609;-27
2024/04/03 05:41:13;;;;;;;4.50;1.20;;;;;;;12.53;56.72;97545.98;105097;1264;62956;-27
2024/04/03 05:43:41;;;;;;;1.90;0.90;;;;;;;12.45;56.21;97531.73;104954;1266;61928;-27
2024/04/03 05:46:08;;;;;;;0.80;0.60;;;;;;;12.02;57.24;97533.55;104917;1269;76672;-27
2024/04/03 05:56:18;;;;;;;1.60;1.10;;;;;;;12.26;56.95;97544.86;102591;1293;600124;-28
2024/04/03 05:58:46;;;;;;;1.50;1.00;;;;;;;12.00;57.35;97534.16;104816;1270;61065;-28
2024/04/03 06:01:14;;;;;;;3.50;1.10;;;;;;;12.07;57.79;97560.67;104921;1269;61815;-27
2024/04/03 06:03:42;;;;;;;1.70;0.90;;;;;;;12.20;57.68;97567.11;104759;1273;73123;-26
2024/04/03 06:06:09;;;;;;;2.40;1.20;;;;;;;12.14;57.52;97556.56;104767;1271;74322;-27
2024/04/03 06:08:39;;;;;;;2.00;0.90;;;;;;;12.26;56.91;97557.06;104804;1273;70950;-27
2024/04/03 06:11:07;;;;;;;1.90;0.80;;;;;;;12.12;57.18;97555.17;101475;1269;61161;-27
2024/04/03 06:13:36;;;;;;;2.20;1.00;;;;;;;12.13;57.00;97559.13;104914;1269;76990;-27
2024/04/03 06:16:04;;;;;;;1.10;0.90;;;;;;;11.99;57.24;97550.21;104850;1270;75689;-27
2024/04/03 06:18:32;;;;;;;6.20;1.30;;;;;;;12.13;57.22;97568.22;104893;1271;72651;-27
2024/04/03 06:21:10;;;;;;;3.20;1.70;;;;;;;12.25;56.91;97559.64;104750;1270;61798;-27
2024/04/03 06:23:38;;;;;;;2.40;0.70;;;;;;;12.29;57.37;97575.34;104821;1270;61805;-27
2024/04/03 06:26:07;;;;;;;1.90;0.90;;;;;;;12.43;57.10;97580.51;104830;1272;74931;-27
2024/04/03 06:28:35;;;;;;;3.00;0.90;;;;;;;12.69;56.85;97589.87;104915;1270;77181;-27
2024/04/03 06:31:03;;;;;;;2.70;1.10;;;;;;;12.75;56.55;97588.08;104721;1267;73921;-27
2024/04/03 06:33:31;;;;;;;1.20;0.90;;;;;;;12.54;56.32;97576.35;104805;1272;63056;-27
2024/04/03 06:35:58;;;;;;;1.80;1.00;;;;;;;12.33;56.16;97572.64;104699;1264;61071;-27
2024/04/03 06:38:27;;;;;;;10.00;1.30;;;;;;;12.42;56.22;97581.53;104706;1270;74635;-27
2024/04/03 06:40:55;;;;;;;2.30;1.10;;;;;;;12.68;56.37;97595.02;104762;1269;76571;-27
2024/04/03 06:43:22;;;;;;;3.00;0.90;;;;;;;12.62;55.08;97575.79;105128;1263;74443;-27
2024/04/03 06:45:56;;;;;;;5.90;1.70;;;;;;;12.63;54.65;97568.08;105170;1265;62550;-27
2024/04/03 06:48:24;;;;;;;1.80;0.90;;;;;;;12.48;54.59;97584.29;105154;1266;61526;-27
2024/04/03 06:50:52;;;;;;;2.00;1.00;;;;;;;12.71;54.79;97604.73;105273;1257;76178;-27
2024/04/03 06:53:20;;;;;;;1.70;0.80;;;;;;;12.93;54.72;97606.20;105303;1263;77402;-27
2024/04/03 06:56:01;;;;;;;0.70;0.70;;;;;;;12.94;53.79;97594.83;105274;1258;74515;-27
2024/04/03 06:58:40;;;;;;;2.70;0.80;;;;;;;12.89;52.76;97591.70;105246;1264;62724;-27
2024/04/03 07:01:08;;;;;;;1.20;0.90;;;;;;;13.01;52.96;97609.34;105230;1267;63936;-27
2024/04/03 07:03:36;;;;;;;1.10;0.70;;;;;;;13.14;52.70;97594.46;105267;1263;75958;-27
2024/04/03 07:06:05;;;;;;;1.90;0.90;;;;;;;12.90;52.38;97594.44;105036;1264;77247;-26
2024/04/03 07:08:33;;;;;;;1.70;0.70;;;;;;;12.76;51.82;97597.32;105124;1264;74157;-26
2024/04/03 07:11:01;;;;;;;0.80;0.60;;;;;;;12.79;52.14;97604.23;105059;1258;62195;-26
2024/04/03 07:13:28;;;;;;;2.00;0.90;;;;;;;12.91;52.56;97616.23;105170;1257;61465;-26
2024/04/03 07:15:56;;;;;;;2.50;0.70;;;;;;;12.92;52.60;97615.45;105129;1266;76372;-26
2024/04/03 07:18:24;;;;;;;0.90;0.70;;;;;;;13.13;51.72;97612.55;105130;1264;76257;-26
2024/04/03 07:20:53;;;;;;;2.00;0.70;;;;;;;13.10;51.92;97612.83;105132;1263;74962;-26
2024/04/03 07:23:27;;;;;;;1.00;0.70;;;;;;;13.15;51.20;97618.92;105079;1265;62884;-26
2024/04/03 07:25:55;;;;;;;1.60;0.50;;;;;;;13.30;50.50;97616.83;105103;1257;61814;-26
2024/04/03 07:28:24;;;;;;;1.20;0.70;;;;;;;13.67;50.30;97617.98;105232;1267;75711;-26
2024/04/03 07:30:52;;;;;;;3.20;0.60;;;;;;;13.97;51.07;97630.77;105099;1263;76220;-26
2024/04/03 07:33:21;;;;;;;1.30;0.60;;;;;;;13.90;50.38;97632.46;105125;1263;74922;-26
2024/04/03 07:35:51;;;;;;;3.10;0.70;;;;;;;13.86;49.11;97620.54;105123;1257;61095;-26
2024/04/03 07:38:20;;;;;;;0.50;0.50;;;;;;;13.81;48.51;97627.80;105075;1258;62269;-26
2024/04/03 07:40:48;;;;;;;2.20;0.90;;;;;;;13.67;48.14;97616.82;105041;1262;75570;-26
2024/04/03 07:43:16;;;;;;;2.20;0.60;;;;;;;13.74;48.15;97614.10;105146;1257;77372;-27
2024/04/03 07:45:44;;;;;;;1.80;0.70;;;;;;;13.66;47.72;97612.76;105127;1264;75214;-26
2024/04/03 07:48:12;;;;;;;2.60;0.70;;;;;;;13.73;48.13;97629.52;105246;1257;61560;-26
2024/04/03 07:50:40;;;;;;;1.30;1.10;;;;;;;13.69;48.79;97641.23;105077;1264;61326;-26
2024/04/03 07:53:08;;;;;;;0.60;0.50;;;;;;;13.90;47.57;97616.80;105506;1264;76718;-27
2024/04/03 07:55:37;;;;;;;0.40;0.40;;;;;;;13.86;46.68;97621.77;105232;1258;76602;-27
2024/04/03 07:58:04;;;;;;;1.80;0.50;;;;;;;14.23;47.12;97638.36;105154;1263;75470;-27
2024/04/03 08:00:34;;;;;;;1.00;0.50;;;;;;;14.08;46.61;97632.85;105512;1255;62954;-27
2024/04/03 08:03:02;;;;;;;0.60;0.30;;;;;;;13.89;46.45;97652.98;105568;1260;61908;-27
2024/04/03 08:05:33;;;;;;;0.40;0.40;;;;;;;13.88;47.33;97654.17;105528;1257;76580;-26
2024/04/03 08:08:01;;;;;;;1.30;0.60;;;;;;;13.59;48.37;97654.25;105359;1254;77190;-27
2024/04/03 08:10:29;;;;;;;1.70;0.40;;;;;;;13.42;49.24;97670.58;105523;1258;74781;-26
2024/04/03 08:12:56;;;;;;;0.30;0.30;;;;;;;13.39;48.17;97632.96;105508;1259;61286;-26
2024/04/03 08:15:24;;;;;;;0.60;0.50;;;;;;;13.47;48.41;97656.05;105346;1259;63900;-27
2024/04/03 08:17:52;;;;;;;1.30;0.60;;;;;;;13.54;48.71;97669.72;105479;1255;75498;-27
2024/04/03 08:20:20;;;;;;;3.50;0.60;;;;;;;13.46;48.13;97656.42;105562;1254;76892;-27
2024/04/03 08:22:47;;;;;;;0.60;0.60;;;;;;;13.27;48.22;97656.43;105677;1261;75455;-27
2024/04/03 08:25:15;;;;;;;1.90;0.40;;;;;;;13.34;48.45;97656.66;105649;1261;61253;-26
2024/04/03 08:27:43;;;;;;;1.00;0.50;;;;;;;13.39;48.79;97672.13;105651;1261;62259;-26
2024/04/03 08:30:11;;;;;;;2.50;0.50;;;;;;;13.47;49.48;97673.53;105679;1260;75917;-26
2024/04/03 08:32:39;;;;;;;0.50;0.50;;;;;;;13.53;49.30;97666.46;105716;1255;76196;-27
2024/04/03 08:35:07;;;;;;;0.30;0.30;;;;;;;13.57;48.44;97668.27;105320;1254;75547;-27
2024/04/03 08:37:35;;;;;;;0.30;0.30;;;;;;;13.46;48.33;97673.64;105580;1260;61233;-27
2024/04/03 08:40:13;;;;;;;0.70;0.50;;;;;;;13.30;49.58;97679.80;105302;1260;62575;-27
2024/04/03 08:42:40;;;;;;;0.60;0.50;;;;;;;13.25;50.43;97693.20;105503;1261;76893;-26
2024/04/03 08:45:08;;;;;;;0.50;0.40;;;;;;;13.22;50.46;97679.11;105456;1254;76130;-26
2024/04/03 08:47:36;;;;;;;1.90;0.90;;;;;;;13.22;50.81;97691.30;105400;1258;75380;-27
2024/04/03 08:50:04;;;;;;;2.20;0.90;;;;;;;13.10;50.82;97689.21;105575;1260;63818;-26
2024/04/03 08:52:32;;;;;;;0.90;0.60;;;;;;;13.32;50.88;97706.94;105553;1260;62537;-27
2024/04/03 08:55:00;;;;;;;0.60;0.60;;;;;;;13.17;51.12;97701.47;105493;1254;74787;-27
2024/04/03 08:57:27;;;;;;;1.10;0.60;;;;;;;12.92;51.32;97693.95;105186;1263;78610;-27
2024/04/03 08:59:57;;;;;;;1.10;0.70;;;;;;;12.89;52.33;97718.83;105630;1260;75226;-27
2024/04/03 09:02:24;;;;;;;0.70;0.40;;;;;;;12.98;52.54;97715.80;105345;1261;61367;-26
2024/04/03 09:04:55;;;;;;;1.40;0.80;;;;;;;12.78;53.43;97700.64;105494;1260;62752;-27
2024/04/03 09:07:23;;;;;;;1.20;0.40;;;;;;;12.35;55.18;97710.52;105616;1255;76385;-25
2024/04/03 09:09:50;;;;;;;0.50;0.50;;;;;;;12.50;57.18;97729.25;105538;1254;76141;-25
2024/04/03 09:12:24;;;;;;;1.20;0.80;;;;;;;12.59;57.35;97724.48;105497;1259;74158;-26
2024/04/03 09:15:03;;;;;;;;;;;;;;;12.85;55.77;97729.11;105213;1263;63220;-26
2024/04/03 09:17:31;;;;;;;0.50;0.50;;;;;;;12.92;53.68;97716.59;105465;1254;61282;-26
2024/04/03 09:19:59;;;;;;;0.50;0.50;;;;;;;12.86;52.98;97720.77;105338;1254;76334;-27
2024/04/03 09:22:26;;;;;;;1.00;0.50;;;;;;;12.86;53.38;97734.23;105486;1259;77101;-28
2024/04/03 09:24:55;;;;;;;0.70;0.50;;;;;;;12.76;52.20;97724.52;105466;1260;74490;-28
2024/04/03 09:27:23;;;;;;;1.20;0.40;;;;;;;12.94;52.25;97743.78;105478;1259;61982;-27
2024/04/03 09:29:54;;;;;;;0.30;0.30;;;;;;;12.81;51.26;97707.39;105448;1255;62937;-28
2024/04/03 09:32:22;;;;;;;0.20;0.20;;;;;;;12.93;50.99;97744.26;105357;1261;74562;-26
2024/04/03 09:34:50;;;;;;;0.20;0.20;;;;;;;13.16;49.07;97723.04;105272;1260;76730;-26
2024/04/03 09:37:18;;;;;;;0.30;0.30;;;;;;;13.18;47.11;97721.39;105359;1260;75432;-27
2024/04/03 09:39:45;;;;;;;0.30;0.30;;;;;;;13.24;46.45;97736.57;105472;1259;62833;-28
2024/04/03 09:49:57;;;;;;;0.50;0.30;;;;;;;13.63;45.65;97744.73;102548;1292;600267;-28
2024/04/03 09:52:25;;;;;;;0.20;0.20;;;;;;;13.78;45.15;97745.31;104764;1274;61406;-27
2024/04/03 09:54:53;;;;;;;0.30;0.30;;;;;;;13.79;44.29;97728.83;104826;1270;62856;-27
2024/04/03 09:57:21;;;;;;;0.50;0.20;;;;;;;13.74;43.99;97732.61;104754;1266;75519;-27
2024/04/03 09:59:52;;;;;;;0.20;0.20;;;;;;;13.64;44.43;97740.79;104819;1266;78460;-26
2024/04/03 10:02:20;;;;;;;1.20;0.30;;;;;;;13.61;44.95;97736.84;104737;1269;73394;-27
2024/04/03 10:04:48;;;;;;;3.00;0.40;;;;;;;13.50;45.93;97754.94;101913;1258;61226;-26
2024/04/03 10:07:20;;;;;;;0.40;0.40;;;;;;;13.32;46.65;97757.62;105702;1258;74506;-27
2024/04/03 10:09:51;;;;;;;1.40;0.60;;;;;;;13.10;46.04;97751.32;105684;1260;78728;-27
2024/04/03 10:12:21;;;;;;;1.00;0.50;;;;;;;13.15;46.90;97770.29;105599;1258;74078;-27
2024/04/03 10:14:56;;;;;;;0.30;0.30;;;;;;;13.39;47.28;97761.90;105350;1261;62556;-28
2024/04/03 10:17:24;;;;;;;1.60;0.50;;;;;;;13.62;46.24;97743.50;105683;1259;62838;-27
2024/04/03 10:19:57;;;;;;;0.20;0.20;;;;;;;13.77;43.79;97722.09;105696;1255;75673;-27
2024/04/03 10:22:28;;;;;;;;;;;;;;;13.82;42.76;97743.29;105688;1260;76776;-27
2024/04/03 10:24:56;;;;;;;0.20;0.20;;;;;;;13.90;43.59;97754.60;105536;1261;74965;-27
2024/04/03 10:27:24;;;;;;;0.20;0.20;;;;;;;14.14;43.15;97750.24;105554;1254;61817;-28
2024/04/03 10:30:06;;;;;;;0.50;0.30;;;;;;;14.00;43.18;97747.50;105652;1258;61833;-27
2024/04/03 10:32:34;;;;;;;0.90;0.20;;;;;;;14.01;44.55;97766.27;105661;1259;75538;-27
2024/04/03 10:35:02;;;;;;;0.60;0.30;;;;;;;13.78;44.42;97757.96;105394;1258;77390;-27
2024/04/03 10:37:30;;;;;;;0.50;0.30;;;;;;;13.69;44.74;97754.11;105468;1257;76693;-27
2024/04/03 10:39:57;;;;;;;0.40;0.30;;;;;;;13.78;45.27;97767.13;105608;1253;61869;-28
2024/04/03 10:42:30;;;;;;;0.70;0.30;;;;;;;14.05;44.83;97741.66;105646;1253;61748;-27
2024/04/03 10:44:58;;;;;;;0.30;0.30;;;;;;;14.24;44.47;97761.00;105683;1256;76678;-28
2024/04/03 10:47:27;;;;;;;3.80;0.40;;;;;;;14.39;44.40;97757.06;105716;1253;78539;-28
2024/04/03 10:49:55;;;;;;;0.20;0.20;;;;;;;14.39;44.18;97762.00;105682;1253;75365;-27
2024/04/03 10:52:23;;;;;;;0.30;0.30;;;;;;;14.35;45.55;97780.29;105456;1261;61174;-28
2024/04/03 10:54:50;;;;;;;0.30;0.30;;;;;;;14.33;45.64;97778.73;105501;1253;61150;-27
2024/04/03 10:57:18;;;;;;;1.20;0.30;;;;;;;14.07;45.01;97768.14;105641;1257;76320;-27
2024/04/03 10:59:46;;;;;;;0.30;0.30;;;;;;;14.06;44.60;97783.79;105609;1253;77031;-27
2024/04/03 11:02:15;;;;;;;0.80;0.40;;;;;;;13.99;43.66;97770.08;105499;1257;74963;-27
2024/04/03 11:04:43;;;;;;;0.90;0.50;;;;;;;13.74;43.88;97737.48;105153;1264;62872;-27
2024/04/03 11:07:14;;;;;;;0.50;0.30;;;;;;;13.78;44.66;97787.34;105286;1261;62942;-27
2024/04/03 11:09:42;;;;;;;1.50;0.50;;;;;;;13.95;45.07;97785.75;105342;1259;76101;-27
2024/04/03 11:12:11;;;;;;;0.20;0.20;;;;;;;13.89;45.27;97781.36;105460;1259;76526;-27
2024/04/03 11:14:39;;;;;;;0.30;0.30;;;;;;;13.92;45.68;97784.38;105643;1259;75513;-27
2024/04/03 11:17:07;;;;;;;0.70;0.30;;;;;;;13.75;46.09;97798.96;105524;1260;61330;-27
2024/04/03 11:19:36;;;;;;;0.20;0.20;;;;;;;13.65;47.24;97799.85;105593;1256;62562;-27
2024/04/03 11:22:04;;;;;;;0.60;0.40;;;;;;;13.95;47.89;97792.52;105687;1261;76131;-27
2024/04/03 11:24:32;;;;;;;0.30;0.30;;;;;;;14.13;48.57;97786.50;105678;1253;77181;-27
2024/04/03 11:26:59;;;;;;;0.90;0.30;;;;;;;13.92;47.39;97791.18;105659;1256;74933;-27
2024/04/03 11:29:30;;;;;;;0.30;0.30;;;;;;;14.09;47.55;97790.84;105710;1260;61258;-27
2024/04/03 11:31:58;;;;;;;0.30;0.30;;;;;;;14.69;46.17;97779.13;105671;1259;62534;-27
2024/04/03 11:34:28;;;;;;;0.70;0.30;;;;;;;15.12;46.08;97778.92;105639;1259;76800;-27
2024/04/03 11:36:56;;;;;;;1.80;0.50;;;;;;;15.17;44.87;97772.35;105452;1260;77589;-27
2024/04/03 11:39:28;;;;;;;0.30;0.30;;;;;;;15.06;45.25;97782.66;105298;1259;75593;-27
2024/04/03 11:42:01;;;;;;;0.50;0.40;;;;;;;14.77;45.51;97774.98;105579;1257;62705;-27
2024/04/03 11:44:28;;;;;;;0.50;0.40;;;;;;;14.50;45.79;97778.35;105632;1253;62883;-28
2024/04/03 11:46:58;;;;;;;1.70;0.30;;;;;;;14.44;46.22;97788.30;105623;1258;75547;-26
2024/04/03 11:49:26;;;;;;;0.40;0.40;;;;;;;14.27;45.88;97792.52;105597;1254;76220;-26
2024/04/03 11:51:54;;;;;;;0.30;0.30;;;;;;;13.80;46.93;97797.10;105636;1259;76658;-26
2024/04/03 11:54:22;;;;;;;0.40;0.30;;;;;;;13.42;52.46;97809.04;105603;1255;62638;-27
2024/04/03 11:56:50;;;;;;;0.30;0.30;;;;;;;12.61;56.26;97815.27;105643;1254;62472;-29
2024/04/03 11:59:18;;;;;;;0.20;0.20;;;;;;;12.56;55.63;97814.84;105521;1253;76847;-27
2024/04/03 12:01:46;;;;;;;0.40;0.20;;;;;;;12.99;55.87;97815.16;105526;1255;76815;-27
2024/04/03 12:04:13;;;;;;;0.30;0.30;;;;;;;13.43;54.99;97803.77;105434;1255;76661;-27
2024/04/03 12:06:41;;;;;;;0.30;0.20;;;;;;;13.61;53.23;97806.52;105586;1253;62512;-27
2024/04/03 12:09:09;;;;;;;0.20;0.20;;;;;;;13.87;52.32;97797.23;105578;1259;62826;-26
2024/04/03 12:11:36;;;;;;;0.20;0.20;;;;;;;13.95;52.27;97797.27;105314;1254;76330;-26
2024/04/03 12:14:07;;;;;;;0.80;0.20;;;;;;;14.33;51.56;97798.27;105358;1254;77191;-26
2024/04/03 12:16:37;;;;;;;0.50;0.40;;;;;;;14.74;50.62;97801.61;105652;1255;75141;-25
2024/04/03 12:19:26;;;;;;;0.20;0.20;;;;;;;14.98;47.57;97784.20;105538;1254;64307;-27
2024/04/03 12:21:53;;;;;;;0.90;0.30;;;;;;;15.19;46.63;97784.38;105344;1259;61890;-27
2024/04/03 12:24:22;;;;;;;0.40;0.40;;;;;;;15.12;45.96;97781.48;105610;1254;75686;-27
2024/04/03 12:26:50;;;;;;;0.20;0.20;;;;;;;14.98;45.75;97787.74;105656;1261;77713;-27
2024/04/03 12:29:17;;;;;;;0.30;0.30;;;;;;;14.67;45.19;97774.79;105570;1269;75486;-27
2024/04/03 12:31:45;;;;;;;0.30;0.30;;;;;;;14.57;45.59;97794.48;105427;1258;62514;-27
2024/04/03 12:34:13;;;;;;;0.90;0.50;;;;;;;14.34;49.62;97823.34;105637;1254;61407;-27
2024/04/03 12:36:41;;;;;;;0.30;0.30;;;;;;;13.15;55.26;97817.55;105645;1259;76604;-28
2024/04/03 12:39:29;;;;;;;0.30;0.30;;;;;;;12.61;58.26;97831.96;105633;1258;76640;-27
2024/04/03 12:41:56;;;;;;;0.50;0.40;;;;;;;12.47;60.18;97834.54;105445;1258;75280;-27
2024/04/03 12:44:24;;;;;;;2.80;0.50;;;;;;;12.33;60.47;97838.33;105680;1258;61176;-27
2024/04/03 12:46:52;;;;;;;1.30;0.50;;;;;;;12.19;61.96;97843.46;105635;1259;61255;-28
2024/04/03 12:49:23;;;;;;;0.30;0.30;;;;;;;12.09;63.05;97860.73;105578;1258;76343;-27
2024/04/03 12:51:52;;;;;;;0.20;0.20;;;;;;;12.49;61.69;97858.06;105487;1260;76213;-25
2024/04/03 12:54:20;;;;;;;0.30;0.30;;;;;;;12.70;61.11;97853.35;105532;1258;73386;-24
2024/04/03 12:56:48;;;;;;;0.30;0.30;;;;;;;12.02;63.66;97847.54;105446;1257;62253;-24
2024/04/03 12:59:16;;;;;;;0.70;0.60;;;;;;;11.81;65.49;97866.79;105431;1259;64118;-25
2024/04/03 13:01:44;;;;;;;0.30;0.30;;;;;;;11.68;67.65;97881.27;105438;1259;75632;-25
2024/04/03 13:04:12;;;;;;;0.20;0.20;;;;;;;11.59;67.86;97879.27;105399;1259;76554;-25
2024/04/03 13:06:41;;;;;;;0.30;0.20;;;;;;;12.04;65.85;97873.56;105400;1258;75554;-25
2024/04/03 13:09:12;;;;;;;1.20;0.50;;;;;;;12.55;64.35;97870.20;105597;1259;63014;-25
2024/04/03 13:11:43;;;;;;;0.20;0.20;;;;;;;12.71;64.93;97867.61;105492;1259;62474;-25
2024/04/03 13:14:11;;;;;;;0.30;0.30;;;;;;;12.89;64.48;97857.65;105500;1254;76667;-25
2024/04/03 13:16:39;;;;;;;0.80;0.20;;;;;;;13.00;61.06;97851.64;105390;1264;76805;-26
2024/04/03 13:19:07;;;;;;;0.50;0.30;;;;;;;12.89;58.82;97844.06;109355;1254;74992;-27
2024/04/03 13:21:34;;;;;;;0.20;0.20;;;;;;;13.13;59.01;97850.57;109336;1254;62581;-28
2024/04/03 13:24:02;;;;;;;1.10;0.30;;;;;;;13.36;58.39;97845.38;109342;1253;62220;-26
2024/04/03 13:26:31;;;;;;;1.00;0.20;;;;;;;13.54;55.54;97849.36;109359;1258;75791;-26
2024/04/03 13:28:58;;;;;;;1.10;0.30;;;;;;;13.82;57.21;97858.05;109330;1254;75592;-26
2024/04/03 13:31:27;;;;;;;0.30;0.30;;;;;;;14.11;55.91;97855.50;109211;1255;73404;-25
2024/04/03 13:33:55;;;;;;;0.30;0.30;;;;;;;14.23;53.64;97854.44;109370;1253;60647;-28
2024/04/03 13:36:24;;;;;;;0.20;0.20;;;;;;;14.07;51.81;97837.37;109375;1254;61110;-28
2024/04/03 13:38:51;;;;;;;0.60;0.30;;;;;;;14.17;51.38;97841.52;109336;1256;74866;-28
2024/04/03 13:41:19;;;;;;;0.50;0.40;;;;;;;14.10;50.92;97837.58;109263;1254;75635;-28
2024/04/03 13:43:46;;;;;;;0.30;0.30;;;;;;;14.26;50.75;97832.58;109231;1253;74103;-28
2024/04/03 13:46:14;;;;;;;1.10;0.40;;;;;;;14.40;50.02;97842.52;109196;1254;62062;-25
2024/04/03 13:48:41;;;;;;;0.80;0.30;;;;;;;14.49;49.13;97850.78;109294;1253;61918;-25
2024/04/03 13:51:10;;;;;;;0.30;0.30;;;;;;;14.59;49.14;97840.13;109390;1253;76132;-25
2024/04/03 13:53:38;;;;;;;0.40;0.40;;;;;;;14.57;47.82;97820.08;109333;1253;76664;-25
2024/04/03 13:56:16;;;;;;;0.30;0.30;;;;;;;14.77;47.93;97846.60;109295;1259;74968;-25
2024/04/03 13:58:44;;;;;;;1.30;0.40;;;;;;;14.88;47.59;97849.00;109282;1254;62347;-25
2024/04/03 14:01:11;;;;;;;0.50;0.50;;;;;;;14.95;47.79;97853.11;109326;1254;61487;-27